sensor_id;sensor_type;location;lat;lon;timestamp;P1;durP1;ratioP1;P2;durP2;ratioP2
14768;SDS011;7476;49.404;11.152;2022-10-18T00:01:39;10.47;;;7.40;;
14768;SDS011;7476;49.404;11.152;2022-10-18T00:04:07;11.70;;;7.37;;
14768;SDS011;7476;49.404;11.152;2022-10-18T00:06:34;9.30;;;6.67;;
14768;SDS011;7476;49.404;11.152;2022-10-18T00:09:01;9.30;;;7.23;;
14768;SDS011;7476;49.404;11.152;2022-10-18T00:11:28;9.07;;;7.50;;
14768;SDS011;7476;49.404;11.152;2022-10-18T00:13:55;8.97;;;6.83;;
14768;SDS011;7476;49.404;11.152;2022-10-18T00:16:22;12.97;;;7.63;;
14768;SDS011;7476;49.404;11.152;2022-10-18T00:18:49;11.20;;;8.03;;
14768;SDS011;7476;49.404;11.152;2022-10-18T00:21:17;8.87;;;7.00;;
14768;SDS011;7476;49.404;11.152;2022-10-18T00:23:46;9.87;;;7.10;;
14768;SDS011;7476;49.404;11.152;2022-10-18T00:26:14;9.53;;;7.47;;
14768;SDS011;7476;49.404;11.152;2022-10-18T00:28:43;11.57;;;7.00;;
14768;SDS011;7476;49.404;11.152;2022-10-18T00:31:11;9.40;;;6.80;;
14768;SDS011;7476;49.404;11.152;2022-10-18T00:33:39;11.33;;;7.17;;
14768;SDS011;7476;49.404;11.152;2022-10-18T00:36:07;10.17;;;6.93;;
14768;SDS011;7476;49.404;11.152;2022-10-18T00:38:35;8.23;;;6.80;;
14768;SDS011;7476;49.404;11.152;2022-10-18T00:41:02;9.77;;;6.90;;
14768;SDS011;7476;49.404;11.152;2022-10-18T00:43:29;10.17;;;6.93;;
14768;SDS011;7476;49.404;11.152;2022-10-18T00:45:56;11.97;;;7.87;;
14768;SDS011;7476;49.404;11.152;2022-10-18T00:48:23;10.43;;;7.13;;
14768;SDS011;7476;49.404;11.152;2022-10-18T00:50:50;9.60;;;7.13;;
14768;SDS011;7476;49.404;11.152;2022-10-18T00:53:18;7.93;;;6.67;;
14768;SDS011;7476;49.404;11.152;2022-10-18T00:55:48;10.30;;;6.90;;
14768;SDS011;7476;49.404;11.152;2022-10-18T00:58:16;9.43;;;7.07;;
14768;SDS011;7476;49.404;11.152;2022-10-18T01:00:44;9.90;;;7.30;;
14768;SDS011;7476;49.404;11.152;2022-10-18T01:03:11;8.93;;;7.37;;
14768;SDS011;7476;49.404;11.152;2022-10-18T01:05:39;13.00;;;7.37;;
14768;SDS011;7476;49.404;11.152;2022-10-18T01:08:23;9.53;;;7.27;;
14768;SDS011;7476;49.404;11.152;2022-10-18T01:11:02;12.80;;;6.80;;
14768;SDS011;7476;49.404;11.152;2022-10-18T01:13:45;11.93;;;7.60;;
14768;SDS011;7476;49.404;11.152;2022-10-18T01:16:23;9.33;;;7.43;;
14768;SDS011;7476;49.404;11.152;2022-10-18T01:18:57;7.57;;;6.77;;
14768;SDS011;7476;49.404;11.152;2022-10-18T01:21:31;9.30;;;7.50;;
14768;SDS011;7476;49.404;11.152;2022-10-18T01:24:14;8.93;;;6.87;;
14768;SDS011;7476;49.404;11.152;2022-10-18T01:27:11;13.27;;;7.63;;
14768;SDS011;7476;49.404;11.152;2022-10-18T01:29:52;8.47;;;6.70;;
14768;SDS011;7476;49.404;11.152;2022-10-18T01:32:30;10.83;;;7.60;;
14768;SDS011;7476;49.404;11.152;2022-10-18T01:35:02;8.03;;;6.23;;
14768;SDS011;7476;49.404;11.152;2022-10-18T01:37:32;10.07;;;7.23;;
14768;SDS011;7476;49.404;11.152;2022-10-18T01:40:01;9.80;;;6.63;;
14768;SDS011;7476;49.404;11.152;2022-10-18T01:42:31;8.67;;;6.17;;
14768;SDS011;7476;49.404;11.152;2022-10-18T01:44:58;8.97;;;6.53;;
14768;SDS011;7476;49.404;11.152;2022-10-18T01:47:26;11.03;;;6.50;;
14768;SDS011;7476;49.404;11.152;2022-10-18T01:49:57;12.97;;;6.57;;
14768;SDS011;7476;49.404;11.152;2022-10-18T01:52:24;6.57;;;5.70;;
14768;SDS011;7476;49.404;11.152;2022-10-18T01:54:51;7.90;;;6.27;;
14768;SDS011;7476;49.404;11.152;2022-10-18T01:57:22;10.17;;;6.23;;
14768;SDS011;7476;49.404;11.152;2022-10-18T01:59:55;6.87;;;6.00;;
14768;SDS011;7476;49.404;11.152;2022-10-18T02:02:29;9.27;;;6.43;;
14768;SDS011;7476;49.404;11.152;2022-10-18T02:05:09;10.30;;;6.60;;
14768;SDS011;7476;49.404;11.152;2022-10-18T02:07:41;12.40;;;6.43;;
14768;SDS011;7476;49.404;11.152;2022-10-18T02:10:14;9.23;;;6.43;;
14768;SDS011;7476;49.404;11.152;2022-10-18T02:12:47;7.87;;;6.43;;
14768;SDS011;7476;49.404;11.152;2022-10-18T02:15:18;10.17;;;6.83;;
14768;SDS011;7476;49.404;11.152;2022-10-18T02:17:47;12.17;;;7.07;;
14768;SDS011;7476;49.404;11.152;2022-10-18T02:20:15;7.10;;;6.40;;
14768;SDS011;7476;49.404;11.152;2022-10-18T02:22:46;11.60;;;6.80;;
14768;SDS011;7476;49.404;11.152;2022-10-18T02:25:17;7.73;;;6.93;;
14768;SDS011;7476;49.404;11.152;2022-10-18T02:27:47;9.80;;;6.80;;
14768;SDS011;7476;49.404;11.152;2022-10-18T02:30:14;7.83;;;6.53;;
14768;SDS011;7476;49.404;11.152;2022-10-18T02:32:43;8.63;;;7.00;;
14768;SDS011;7476;49.404;11.152;2022-10-18T02:35:16;10.17;;;6.60;;
14768;SDS011;7476;49.404;11.152;2022-10-18T02:37:45;11.57;;;6.63;;
14768;SDS011;7476;49.404;11.152;2022-10-18T02:40:14;9.20;;;6.30;;
14768;SDS011;7476;49.404;11.152;2022-10-18T02:42:43;10.00;;;7.07;;
14768;SDS011;7476;49.404;11.152;2022-10-18T02:45:11;9.47;;;6.63;;
14768;SDS011;7476;49.404;11.152;2022-10-18T02:47:38;10.77;;;6.60;;
14768;SDS011;7476;49.404;11.152;2022-10-18T02:50:05;9.63;;;6.07;;
14768;SDS011;7476;49.404;11.152;2022-10-18T02:52:34;8.07;;;6.43;;
14768;SDS011;7476;49.404;11.152;2022-10-18T02:55:01;10.00;;;7.40;;
14768;SDS011;7476;49.404;11.152;2022-10-18T02:57:28;9.40;;;6.63;;
14768;SDS011;7476;49.404;11.152;2022-10-18T02:59:55;9.73;;;6.53;;
14768;SDS011;7476;49.404;11.152;2022-10-18T03:02:21;9.03;;;6.73;;
14768;SDS011;7476;49.404;11.152;2022-10-18T03:04:48;9.80;;;6.80;;
14768;SDS011;7476;49.404;11.152;2022-10-18T03:07:15;9.83;;;7.20;;
14768;SDS011;7476;49.404;11.152;2022-10-18T03:09:43;9.80;;;7.00;;
14768;SDS011;7476;49.404;11.152;2022-10-18T03:12:10;8.70;;;6.67;;
14768;SDS011;7476;49.404;11.152;2022-10-18T03:14:36;11.27;;;6.97;;
14768;SDS011;7476;49.404;11.152;2022-10-18T03:17:03;8.30;;;6.67;;
14768;SDS011;7476;49.404;11.152;2022-10-18T03:19:30;8.33;;;6.77;;
14768;SDS011;7476;49.404;11.152;2022-10-18T03:21:56;8.63;;;6.97;;
14768;SDS011;7476;49.404;11.152;2022-10-18T03:24:23;8.93;;;6.70;;
14768;SDS011;7476;49.404;11.152;2022-10-18T03:26:51;12.03;;;7.00;;
14768;SDS011;7476;49.404;11.152;2022-10-18T03:29:18;7.67;;;6.67;;
14768;SDS011;7476;49.404;11.152;2022-10-18T03:31:45;8.00;;;6.70;;
14768;SDS011;7476;49.404;11.152;2022-10-18T03:34:11;9.03;;;7.67;;
14768;SDS011;7476;49.404;11.152;2022-10-18T03:36:39;8.23;;;6.53;;
14768;SDS011;7476;49.404;11.152;2022-10-18T03:39:06;9.80;;;6.83;;
14768;SDS011;7476;49.404;11.152;2022-10-18T03:41:33;10.33;;;6.87;;
14768;SDS011;7476;49.404;11.152;2022-10-18T03:44:01;16.60;;;7.43;;
14768;SDS011;7476;49.404;11.152;2022-10-18T03:46:28;8.53;;;6.80;;
14768;SDS011;7476;49.404;11.152;2022-10-18T03:48:54;8.33;;;7.10;;
14768;SDS011;7476;49.404;11.152;2022-10-18T03:51:21;10.57;;;7.23;;
14768;SDS011;7476;49.404;11.152;2022-10-18T03:53:48;8.03;;;7.10;;
14768;SDS011;7476;49.404;11.152;2022-10-18T03:56:15;9.13;;;6.43;;
14768;SDS011;7476;49.404;11.152;2022-10-18T03:58:41;8.93;;;6.60;;
14768;SDS011;7476;49.404;11.152;2022-10-18T04:01:09;8.90;;;7.20;;
14768;SDS011;7476;49.404;11.152;2022-10-18T04:03:36;11.63;;;7.40;;
14768;SDS011;7476;49.404;11.152;2022-10-18T04:06:03;7.53;;;6.53;;
14768;SDS011;7476;49.404;11.152;2022-10-18T04:08:31;10.97;;;6.87;;
14768;SDS011;7476;49.404;11.152;2022-10-18T04:10:58;8.87;;;7.57;;
14768;SDS011;7476;49.404;11.152;2022-10-18T04:13:28;8.87;;;6.63;;
14768;SDS011;7476;49.404;11.152;2022-10-18T04:15:55;7.37;;;6.57;;
14768;SDS011;7476;49.404;11.152;2022-10-18T04:18:23;11.10;;;7.47;;
14768;SDS011;7476;49.404;11.152;2022-10-18T04:20:50;8.00;;;7.20;;
14768;SDS011;7476;49.404;11.152;2022-10-18T04:23:16;9.87;;;7.23;;
14768;SDS011;7476;49.404;11.152;2022-10-18T04:25:43;8.33;;;7.30;;
14768;SDS011;7476;49.404;11.152;2022-10-18T04:28:10;8.73;;;6.87;;
14768;SDS011;7476;49.404;11.152;2022-10-18T04:30:37;10.43;;;7.80;;
14768;SDS011;7476;49.404;11.152;2022-10-18T04:33:03;9.20;;;7.00;;
14768;SDS011;7476;49.404;11.152;2022-10-18T04:35:31;11.43;;;7.83;;
14768;SDS011;7476;49.404;11.152;2022-10-18T04:37:58;8.33;;;6.97;;
14768;SDS011;7476;49.404;11.152;2022-10-18T04:40:25;9.70;;;7.73;;
14768;SDS011;7476;49.404;11.152;2022-10-18T04:42:51;10.17;;;7.53;;
14768;SDS011;7476;49.404;11.152;2022-10-18T04:45:18;10.33;;;7.20;;
14768;SDS011;7476;49.404;11.152;2022-10-18T04:47:45;11.90;;;7.53;;
14768;SDS011;7476;49.404;11.152;2022-10-18T04:50:11;9.33;;;7.40;;
14768;SDS011;7476;49.404;11.152;2022-10-18T04:52:39;7.53;;;6.67;;
14768;SDS011;7476;49.404;11.152;2022-10-18T04:55:06;8.43;;;6.80;;
14768;SDS011;7476;49.404;11.152;2022-10-18T04:57:33;7.70;;;6.70;;
14768;SDS011;7476;49.404;11.152;2022-10-18T05:00:00;10.37;;;6.80;;
14768;SDS011;7476;49.404;11.152;2022-10-18T05:02:27;10.77;;;7.47;;
14768;SDS011;7476;49.404;11.152;2022-10-18T05:04:54;9.60;;;7.60;;
14768;SDS011;7476;49.404;11.152;2022-10-18T05:07:20;10.73;;;8.00;;
14768;SDS011;7476;49.404;11.152;2022-10-18T05:09:48;10.70;;;7.63;;
14768;SDS011;7476;49.404;11.152;2022-10-18T05:12:15;7.97;;;7.00;;
14768;SDS011;7476;49.404;11.152;2022-10-18T05:14:42;11.80;;;7.53;;
14768;SDS011;7476;49.404;11.152;2022-10-18T05:17:09;9.50;;;7.40;;
14768;SDS011;7476;49.404;11.152;2022-10-18T05:19:35;9.43;;;7.87;;
14768;SDS011;7476;49.404;11.152;2022-10-18T05:22:02;8.13;;;6.83;;
14768;SDS011;7476;49.404;11.152;2022-10-18T05:24:29;10.27;;;8.33;;
14768;SDS011;7476;49.404;11.152;2022-10-18T05:26:57;7.77;;;6.97;;
14768;SDS011;7476;49.404;11.152;2022-10-18T05:29:24;8.27;;;7.37;;
14768;SDS011;7476;49.404;11.152;2022-10-18T05:31:51;9.73;;;7.30;;
14768;SDS011;7476;49.404;11.152;2022-10-18T05:34:17;11.23;;;7.20;;
14768;SDS011;7476;49.404;11.152;2022-10-18T05:36:44;7.70;;;6.93;;
14768;SDS011;7476;49.404;11.152;2022-10-18T05:39:11;10.07;;;7.03;;
14768;SDS011;7476;49.404;11.152;2022-10-18T05:41:38;7.70;;;6.90;;
14768;SDS011;7476;49.404;11.152;2022-10-18T05:44:06;9.03;;;6.83;;
14768;SDS011;7476;49.404;11.152;2022-10-18T05:46:33;10.47;;;7.83;;
14768;SDS011;7476;49.404;11.152;2022-10-18T05:48:59;10.67;;;7.07;;
14768;SDS011;7476;49.404;11.152;2022-10-18T05:51:26;10.00;;;7.73;;
14768;SDS011;7476;49.404;11.152;2022-10-18T05:53:53;11.73;;;7.20;;
14768;SDS011;7476;49.404;11.152;2022-10-18T05:56:19;8.43;;;6.77;;
14768;SDS011;7476;49.404;11.152;2022-10-18T05:58:48;9.00;;;7.30;;
14768;SDS011;7476;49.404;11.152;2022-10-18T06:01:17;12.30;;;8.27;;
14768;SDS011;7476;49.404;11.152;2022-10-18T06:03:44;9.73;;;7.97;;
14768;SDS011;7476;49.404;11.152;2022-10-18T06:06:11;11.13;;;8.33;;
14768;SDS011;7476;49.404;11.152;2022-10-18T06:08:39;9.93;;;8.67;;
14768;SDS011;7476;49.404;11.152;2022-10-18T06:11:07;11.50;;;8.37;;
14768;SDS011;7476;49.404;11.152;2022-10-18T06:13:38;12.90;;;8.03;;
14768;SDS011;7476;49.404;11.152;2022-10-18T06:16:06;9.63;;;8.63;;
14768;SDS011;7476;49.404;11.152;2022-10-18T06:18:34;14.03;;;8.40;;
14768;SDS011;7476;49.404;11.152;2022-10-18T06:21:01;9.33;;;7.57;;
14768;SDS011;7476;49.404;11.152;2022-10-18T06:23:28;11.83;;;8.40;;
14768;SDS011;7476;49.404;11.152;2022-10-18T06:25:57;14.23;;;8.00;;
14768;SDS011;7476;49.404;11.152;2022-10-18T06:28:24;12.20;;;8.20;;
14768;SDS011;7476;49.404;11.152;2022-10-18T06:30:51;9.40;;;8.00;;
14768;SDS011;7476;49.404;11.152;2022-10-18T06:33:18;13.97;;;8.20;;
14768;SDS011;7476;49.404;11.152;2022-10-18T06:35:53;12.53;;;8.60;;
14768;SDS011;7476;49.404;11.152;2022-10-18T06:38:21;15.47;;;9.40;;
14768;SDS011;7476;49.404;11.152;2022-10-18T06:40:48;13.17;;;8.60;;
14768;SDS011;7476;49.404;11.152;2022-10-18T06:43:14;9.40;;;8.00;;
14768;SDS011;7476;49.404;11.152;2022-10-18T06:45:41;9.97;;;8.53;;
14768;SDS011;7476;49.404;11.152;2022-10-18T06:48:08;15.90;;;9.50;;
14768;SDS011;7476;49.404;11.152;2022-10-18T06:50:34;12.47;;;8.90;;
14768;SDS011;7476;49.404;11.152;2022-10-18T06:53:02;11.17;;;8.67;;
14768;SDS011;7476;49.404;11.152;2022-10-18T06:55:32;10.40;;;8.77;;
14768;SDS011;7476;49.404;11.152;2022-10-18T06:57:59;13.47;;;9.40;;
14768;SDS011;7476;49.404;11.152;2022-10-18T07:00:26;14.80;;;9.00;;
14768;SDS011;7476;49.404;11.152;2022-10-18T07:02:53;12.83;;;8.63;;
14768;SDS011;7476;49.404;11.152;2022-10-18T07:05:23;17.17;;;9.40;;
14768;SDS011;7476;49.404;11.152;2022-10-18T07:07:50;11.67;;;9.40;;
14768;SDS011;7476;49.404;11.152;2022-10-18T07:10:20;11.27;;;9.30;;
14768;SDS011;7476;49.404;11.152;2022-10-18T07:12:48;12.90;;;10.03;;
14768;SDS011;7476;49.404;11.152;2022-10-18T07:15:15;11.63;;;9.23;;
14768;SDS011;7476;49.404;11.152;2022-10-18T07:17:42;17.93;;;10.87;;
14768;SDS011;7476;49.404;11.152;2022-10-18T07:20:09;13.63;;;10.17;;
14768;SDS011;7476;49.404;11.152;2022-10-18T07:22:36;16.13;;;9.50;;
14768;SDS011;7476;49.404;11.152;2022-10-18T07:25:04;9.57;;;8.57;;
14768;SDS011;7476;49.404;11.152;2022-10-18T07:27:34;9.97;;;7.63;;
14768;SDS011;7476;49.404;11.152;2022-10-18T07:30:01;11.33;;;7.80;;
14768;SDS011;7476;49.404;11.152;2022-10-18T07:32:28;11.47;;;8.20;;
14768;SDS011;7476;49.404;11.152;2022-10-18T07:34:55;9.20;;;7.43;;
14768;SDS011;7476;49.404;11.152;2022-10-18T07:37:22;10.43;;;8.27;;
14768;SDS011;7476;49.404;11.152;2022-10-18T07:39:49;11.40;;;8.30;;
14768;SDS011;7476;49.404;11.152;2022-10-18T07:42:15;11.50;;;8.40;;
14768;SDS011;7476;49.404;11.152;2022-10-18T07:44:43;9.60;;;8.20;;
14768;SDS011;7476;49.404;11.152;2022-10-18T07:47:10;10.43;;;8.13;;
14768;SDS011;7476;49.404;11.152;2022-10-18T07:49:37;8.13;;;7.03;;
14768;SDS011;7476;49.404;11.152;2022-10-18T07:52:03;11.97;;;7.67;;
14768;SDS011;7476;49.404;11.152;2022-10-18T07:54:30;8.40;;;7.60;;
14768;SDS011;7476;49.404;11.152;2022-10-18T07:56:57;11.07;;;8.30;;
14768;SDS011;7476;49.404;11.152;2022-10-18T07:59:24;10.83;;;7.60;;
14768;SDS011;7476;49.404;11.152;2022-10-18T08:01:52;11.97;;;7.17;;
14768;SDS011;7476;49.404;11.152;2022-10-18T08:04:19;11.27;;;8.23;;
14768;SDS011;7476;49.404;11.152;2022-10-18T08:06:45;11.20;;;9.10;;
14768;SDS011;7476;49.404;11.152;2022-10-18T08:09:12;10.83;;;8.17;;
14768;SDS011;7476;49.404;11.152;2022-10-18T08:11:39;11.23;;;8.50;;
14768;SDS011;7476;49.404;11.152;2022-10-18T08:14:06;8.47;;;7.23;;
14768;SDS011;7476;49.404;11.152;2022-10-18T08:16:32;10.50;;;7.63;;
14768;SDS011;7476;49.404;11.152;2022-10-18T08:19:00;11.10;;;7.03;;
14768;SDS011;7476;49.404;11.152;2022-10-18T08:21:28;6.47;;;5.77;;
14768;SDS011;7476;49.404;11.152;2022-10-18T08:23:55;8.33;;;6.63;;
14768;SDS011;7476;49.404;11.152;2022-10-18T08:26:21;8.00;;;6.00;;
14768;SDS011;7476;49.404;11.152;2022-10-18T08:28:48;7.13;;;6.17;;
14768;SDS011;7476;49.404;11.152;2022-10-18T08:31:16;8.43;;;5.37;;
14768;SDS011;7476;49.404;11.152;2022-10-18T08:33:43;7.60;;;5.33;;
14768;SDS011;7476;49.404;11.152;2022-10-18T08:36:12;4.93;;;4.43;;
14768;SDS011;7476;49.404;11.152;2022-10-18T08:38:40;4.77;;;4.33;;
14768;SDS011;7476;49.404;11.152;2022-10-18T08:41:16;5.83;;;4.13;;
14768;SDS011;7476;49.404;11.152;2022-10-18T08:43:55;5.57;;;4.37;;
14768;SDS011;7476;49.404;11.152;2022-10-18T08:46:30;6.70;;;3.43;;
14768;SDS011;7476;49.404;11.152;2022-10-18T08:48:58;5.33;;;3.80;;
14768;SDS011;7476;49.404;11.152;2022-10-18T08:51:29;4.53;;;3.60;;
14768;SDS011;7476;49.404;11.152;2022-10-18T08:54:01;5.77;;;3.73;;
14768;SDS011;7476;49.404;11.152;2022-10-18T08:56:31;6.17;;;3.70;;
14768;SDS011;7476;49.404;11.152;2022-10-18T08:59:00;4.83;;;3.50;;
14768;SDS011;7476;49.404;11.152;2022-10-18T09:01:30;6.10;;;4.27;;
14768;SDS011;7476;49.404;11.152;2022-10-18T09:04:13;4.20;;;3.60;;
14768;SDS011;7476;49.404;11.152;2022-10-18T09:06:53;7.43;;;3.60;;
14768;SDS011;7476;49.404;11.152;2022-10-18T09:09:33;8.17;;;3.77;;
14768;SDS011;7476;49.404;11.152;2022-10-18T09:12:07;5.13;;;3.60;;
14768;SDS011;7476;49.404;11.152;2022-10-18T09:14:55;4.80;;;3.37;;
14768;SDS011;7476;49.404;11.152;2022-10-18T09:17:35;3.87;;;3.33;;
14768;SDS011;7476;49.404;11.152;2022-10-18T09:20:18;5.83;;;3.63;;
14768;SDS011;7476;49.404;11.152;2022-10-18T09:22:52;4.80;;;3.37;;
14768;SDS011;7476;49.404;11.152;2022-10-18T09:25:21;5.00;;;3.30;;
14768;SDS011;7476;49.404;11.152;2022-10-18T09:27:53;5.17;;;3.50;;
14768;SDS011;7476;49.404;11.152;2022-10-18T09:30:25;5.37;;;3.00;;
14768;SDS011;7476;49.404;11.152;2022-10-18T09:33:02;4.03;;;3.00;;
14768;SDS011;7476;49.404;11.152;2022-10-18T09:35:41;7.27;;;3.40;;
14768;SDS011;7476;49.404;11.152;2022-10-18T09:38:15;4.90;;;3.53;;
14768;SDS011;7476;49.404;11.152;2022-10-18T09:40:46;3.60;;;3.30;;
14768;SDS011;7476;49.404;11.152;2022-10-18T09:43:19;5.67;;;3.60;;
14768;SDS011;7476;49.404;11.152;2022-10-18T09:45:48;6.20;;;3.23;;
14768;SDS011;7476;49.404;11.152;2022-10-18T09:48:20;4.87;;;3.17;;
14768;SDS011;7476;49.404;11.152;2022-10-18T09:50:52;6.30;;;3.33;;
14768;SDS011;7476;49.404;11.152;2022-10-18T09:53:25;5.37;;;3.70;;
14768;SDS011;7476;49.404;11.152;2022-10-18T09:56:00;8.47;;;3.73;;
14768;SDS011;7476;49.404;11.152;2022-10-18T09:58:33;6.90;;;3.60;;
14768;SDS011;7476;49.404;11.152;2022-10-18T10:01:09;6.70;;;3.20;;
14768;SDS011;7476;49.404;11.152;2022-10-18T10:03:38;3.97;;;3.20;;
14768;SDS011;7476;49.404;11.152;2022-10-18T10:06:15;5.43;;;3.67;;
14768;SDS011;7476;49.404;11.152;2022-10-18T10:08:53;4.50;;;2.90;;
14768;SDS011;7476;49.404;11.152;2022-10-18T10:11:30;6.17;;;3.80;;
14768;SDS011;7476;49.404;11.152;2022-10-18T10:14:09;6.87;;;3.37;;
14768;SDS011;7476;49.404;11.152;2022-10-18T10:16:42;5.33;;;3.40;;
14768;SDS011;7476;49.404;11.152;2022-10-18T10:19:16;5.37;;;3.30;;
14768;SDS011;7476;49.404;11.152;2022-10-18T10:21:44;5.67;;;3.43;;
14768;SDS011;7476;49.404;11.152;2022-10-18T10:24:18;3.73;;;3.23;;
14768;SDS011;7476;49.404;11.152;2022-10-18T10:26:49;5.27;;;3.10;;
14768;SDS011;7476;49.404;11.152;2022-10-18T10:32:21;5.70;;;3.23;;
14768;SDS011;7476;49.404;11.152;2022-10-18T10:34:50;8.17;;;3.73;;
14768;SDS011;7476;49.404;11.152;2022-10-18T10:37:24;6.03;;;3.20;;
14768;SDS011;7476;49.404;11.152;2022-10-18T10:42:54;7.87;;;3.30;;
14768;SDS011;7476;49.404;11.152;2022-10-18T10:45:25;3.73;;;3.30;;
14768;SDS011;7476;49.404;11.152;2022-10-18T10:47:54;8.10;;;3.80;;
14768;SDS011;7476;49.404;11.152;2022-10-18T10:50:32;5.30;;;3.10;;
14768;SDS011;7476;49.404;11.152;2022-10-18T10:53:21;6.40;;;3.13;;
14768;SDS011;7476;49.404;11.152;2022-10-18T10:55:54;6.40;;;3.57;;
14768;SDS011;7476;49.404;11.152;2022-10-18T10:58:22;6.47;;;3.27;;
14768;SDS011;7476;49.404;11.152;2022-10-18T11:00:50;7.20;;;3.40;;
14768;SDS011;7476;49.404;11.152;2022-10-18T11:03:18;10.70;;;3.20;;
14768;SDS011;7476;49.404;11.152;2022-10-18T11:05:48;5.50;;;3.27;;
14768;SDS011;7476;49.404;11.152;2022-10-18T11:08:17;8.83;;;3.67;;
14768;SDS011;7476;49.404;11.152;2022-10-18T11:10:49;6.47;;;3.20;;
14768;SDS011;7476;49.404;11.152;2022-10-18T11:13:36;12.63;;;3.43;;
14768;SDS011;7476;49.404;11.152;2022-10-18T11:16:12;7.07;;;3.63;;
14768;SDS011;7476;49.404;11.152;2022-10-18T11:18:41;4.33;;;3.40;;
14768;SDS011;7476;49.404;11.152;2022-10-18T11:21:14;6.00;;;3.33;;
14768;SDS011;7476;49.404;11.152;2022-10-18T11:23:43;11.70;;;3.63;;
14768;SDS011;7476;49.404;11.152;2022-10-18T11:26:22;6.00;;;3.57;;
14768;SDS011;7476;49.404;11.152;2022-10-18T11:29:18;6.07;;;3.23;;
14768;SDS011;7476;49.404;11.152;2022-10-18T11:31:58;8.00;;;3.70;;
14768;SDS011;7476;49.404;11.152;2022-10-18T11:34:42;4.47;;;3.27;;
14768;SDS011;7476;49.404;11.152;2022-10-18T11:37:22;7.27;;;3.80;;
14768;SDS011;7476;49.404;11.152;2022-10-18T11:40:22;5.83;;;3.70;;
14768;SDS011;7476;49.404;11.152;2022-10-18T11:42:59;6.60;;;3.63;;
14768;SDS011;7476;49.404;11.152;2022-10-18T11:45:37;4.00;;;3.40;;
14768;SDS011;7476;49.404;11.152;2022-10-18T11:48:15;5.57;;;3.73;;
14768;SDS011;7476;49.404;11.152;2022-10-18T11:51:08;6.63;;;3.93;;
14768;SDS011;7476;49.404;11.152;2022-10-18T11:53:41;9.50;;;4.00;;
14768;SDS011;7476;49.404;11.152;2022-10-18T11:56:18;9.10;;;4.03;;
14768;SDS011;7476;49.404;11.152;2022-10-18T11:58:58;9.00;;;4.63;;
14768;SDS011;7476;49.404;11.152;2022-10-18T12:01:36;6.40;;;4.73;;
14768;SDS011;7476;49.404;11.152;2022-10-18T12:04:09;7.67;;;4.73;;
14768;SDS011;7476;49.404;11.152;2022-10-18T12:06:40;7.97;;;4.93;;
14768;SDS011;7476;49.404;11.152;2022-10-18T12:09:10;9.23;;;5.17;;
14768;SDS011;7476;49.404;11.152;2022-10-18T12:11:50;6.93;;;4.83;;
14768;SDS011;7476;49.404;11.152;2022-10-18T12:14:23;12.93;;;5.30;;
14768;SDS011;7476;49.404;11.152;2022-10-18T12:16:52;6.47;;;4.90;;
14768;SDS011;7476;49.404;11.152;2022-10-18T12:19:24;9.57;;;5.63;;
14768;SDS011;7476;49.404;11.152;2022-10-18T12:21:54;6.50;;;5.37;;
14768;SDS011;7476;49.404;11.152;2022-10-18T12:24:24;7.40;;;5.33;;
14768;SDS011;7476;49.404;11.152;2022-10-18T12:26:52;8.87;;;5.67;;
14768;SDS011;7476;49.404;11.152;2022-10-18T12:29:26;7.37;;;5.50;;
14768;SDS011;7476;49.404;11.152;2022-10-18T12:31:59;6.60;;;5.37;;
14768;SDS011;7476;49.404;11.152;2022-10-18T12:34:32;9.90;;;5.63;;
14768;SDS011;7476;49.404;11.152;2022-10-18T12:37:14;6.07;;;5.40;;
14768;SDS011;7476;49.404;11.152;2022-10-18T12:40:10;9.83;;;8.60;;
14768;SDS011;7476;49.404;11.152;2022-10-18T12:42:40;8.17;;;6.60;;
14768;SDS011;7476;49.404;11.152;2022-10-18T12:45:18;7.23;;;5.90;;
14768;SDS011;7476;49.404;11.152;2022-10-18T12:47:57;8.40;;;5.83;;
14768;SDS011;7476;49.404;11.152;2022-10-18T12:50:27;5.83;;;5.20;;
14768;SDS011;7476;49.404;11.152;2022-10-18T12:53:00;7.37;;;5.07;;
14768;SDS011;7476;49.404;11.152;2022-10-18T12:55:30;7.47;;;5.33;;
14768;SDS011;7476;49.404;11.152;2022-10-18T12:58:02;7.40;;;6.00;;
14768;SDS011;7476;49.404;11.152;2022-10-18T13:03:37;9.10;;;5.97;;
14768;SDS011;7476;49.404;11.152;2022-10-18T13:06:23;7.67;;;5.20;;
14768;SDS011;7476;49.404;11.152;2022-10-18T13:09:15;9.13;;;5.57;;
14768;SDS011;7476;49.404;11.152;2022-10-18T13:11:43;6.53;;;5.47;;
14768;SDS011;7476;49.404;11.152;2022-10-18T13:17:06;10.77;;;5.43;;
14768;SDS011;7476;49.404;11.152;2022-10-18T13:19:46;10.83;;;6.30;;
14768;SDS011;7476;49.404;11.152;2022-10-18T13:25:23;9.17;;;6.27;;
14768;SDS011;7476;49.404;11.152;2022-10-18T13:27:55;6.13;;;5.50;;
14768;SDS011;7476;49.404;11.152;2022-10-18T13:30:31;7.17;;;5.40;;
14768;SDS011;7476;49.404;11.152;2022-10-18T13:35:56;8.23;;;5.33;;
14768;SDS011;7476;49.404;11.152;2022-10-18T13:38:41;9.60;;;6.27;;
14768;SDS011;7476;49.404;11.152;2022-10-18T13:41:13;9.90;;;6.37;;
14768;SDS011;7476;49.404;11.152;2022-10-18T13:47:08;8.70;;;6.07;;
14768;SDS011;7476;49.404;11.152;2022-10-18T13:49:43;7.27;;;6.13;;
14768;SDS011;7476;49.404;11.152;2022-10-18T13:52:28;6.63;;;5.73;;
14768;SDS011;7476;49.404;11.152;2022-10-18T13:55:17;6.33;;;5.43;;
14768;SDS011;7476;49.404;11.152;2022-10-18T13:57:57;7.97;;;5.53;;
14768;SDS011;7476;49.404;11.152;2022-10-18T14:00:37;7.67;;;5.53;;
14768;SDS011;7476;49.404;11.152;2022-10-18T14:06:31;5.93;;;5.33;;
14768;SDS011;7476;49.404;11.152;2022-10-18T14:09:00;9.57;;;5.30;;
14768;SDS011;7476;49.404;11.152;2022-10-18T14:11:32;9.33;;;5.43;;
14768;SDS011;7476;49.404;11.152;2022-10-18T14:14:04;8.77;;;5.43;;
14768;SDS011;7476;49.404;11.152;2022-10-18T14:16:39;12.27;;;5.63;;
14768;SDS011;7476;49.404;11.152;2022-10-18T14:19:13;7.73;;;5.40;;
14768;SDS011;7476;49.404;11.152;2022-10-18T14:21:50;8.73;;;5.97;;
14768;SDS011;7476;49.404;11.152;2022-10-18T14:24:21;8.53;;;5.60;;
14768;SDS011;7476;49.404;11.152;2022-10-18T14:27:09;8.27;;;5.53;;
14768;SDS011;7476;49.404;11.152;2022-10-18T14:29:46;6.93;;;5.43;;
14768;SDS011;7476;49.404;11.152;2022-10-18T14:32:23;9.87;;;5.20;;
14768;SDS011;7476;49.404;11.152;2022-10-18T14:34:51;9.67;;;5.13;;
14768;SDS011;7476;49.404;11.152;2022-10-18T14:37:24;8.07;;;5.20;;
14768;SDS011;7476;49.404;11.152;2022-10-18T14:39:53;8.70;;;5.50;;
14768;SDS011;7476;49.404;11.152;2022-10-18T14:42:20;7.63;;;5.03;;
14768;SDS011;7476;49.404;11.152;2022-10-18T14:44:49;8.63;;;4.90;;
14768;SDS011;7476;49.404;11.152;2022-10-18T14:47:16;7.00;;;5.57;;
14768;SDS011;7476;49.404;11.152;2022-10-18T14:49:46;7.70;;;5.20;;
14768;SDS011;7476;49.404;11.152;2022-10-18T14:52:14;9.23;;;5.57;;
14768;SDS011;7476;49.404;11.152;2022-10-18T14:54:44;7.10;;;5.53;;
14768;SDS011;7476;49.404;11.152;2022-10-18T14:57:15;6.90;;;5.13;;
14768;SDS011;7476;49.404;11.152;2022-10-18T14:59:45;7.37;;;5.23;;
14768;SDS011;7476;49.404;11.152;2022-10-18T15:02:16;7.23;;;5.17;;
14768;SDS011;7476;49.404;11.152;2022-10-18T15:04:52;6.17;;;4.83;;
14768;SDS011;7476;49.404;11.152;2022-10-18T15:07:20;9.13;;;5.23;;
14768;SDS011;7476;49.404;11.152;2022-10-18T15:09:49;7.77;;;5.23;;
14768;SDS011;7476;49.404;11.152;2022-10-18T15:12:17;6.13;;;5.53;;
14768;SDS011;7476;49.404;11.152;2022-10-18T15:14:44;6.50;;;5.20;;
14768;SDS011;7476;49.404;11.152;2022-10-18T15:17:12;6.57;;;5.43;;
14768;SDS011;7476;49.404;11.152;2022-10-18T15:19:51;7.57;;;4.80;;
14768;SDS011;7476;49.404;11.152;2022-10-18T15:22:21;11.87;;;5.47;;
14768;SDS011;7476;49.404;11.152;2022-10-18T15:27:40;6.10;;;5.40;;
14768;SDS011;7476;49.404;11.152;2022-10-18T15:30:20;6.37;;;5.20;;
14768;SDS011;7476;49.404;11.152;2022-10-18T15:32:52;6.97;;;5.40;;